createdAt,value
2019-01-31T00:04:43.320Z,0.50
2019-01-31T00:15:31.067Z,0.40
2019-01-31T00:26:25.399Z,0.40
2019-01-31T00:36:37.687Z,0.30
2019-01-31T00:47:30.028Z,0.20
2019-01-31T00:58:13.530Z,0.20
2019-01-31T01:08:55.272Z,0.30
2019-01-31T01:19:48.954Z,0.30
2019-01-31T01:30:14.148Z,0.30
2019-01-31T01:40:51.419Z,0.30
2019-01-31T01:51:31.906Z,0.10
2019-01-31T02:02:03.400Z,0.20
2019-01-31T02:12:22.432Z,0.10
2019-01-31T02:23:10.984Z,0.10
2019-01-31T02:33:55.624Z,0.00
2019-01-31T02:44:23.980Z,-0.10
2019-01-31T02:54:55.391Z,0.00
2019-01-31T03:05:40.700Z,-0.10
2019-01-31T03:16:19.313Z,-0.10
2019-01-31T03:27:16.316Z,-0.10
2019-01-31T03:38:02.477Z,-0.10
2019-01-31T03:48:43.357Z,-0.20
2019-01-31T03:59:10.795Z,-0.20
2019-01-31T04:09:13.361Z,-0.20
2019-01-31T04:19:16.057Z,-0.20
2019-01-31T04:29:18.584Z,-0.10
2019-01-31T04:39:22.074Z,-0.20
2019-01-31T04:49:24.782Z,-0.20
2019-01-31T04:59:27.401Z,-0.30
2019-01-31T05:09:29.990Z,-0.30
2019-01-31T05:19:32.733Z,-0.30
2019-01-31T05:29:35.302Z,-0.30
2019-01-31T05:39:38.872Z,-0.40
2019-01-31T05:49:41.444Z,-0.30
2019-01-31T05:59:43.976Z,-0.30
2019-01-31T06:09:46.472Z,-0.20
2019-01-31T06:19:49.332Z,-0.30
2019-01-31T06:29:51.904Z,-0.30
2019-01-31T06:39:55.459Z,-0.30
2019-01-31T06:49:58.196Z,-0.40
2019-01-31T07:00:00.648Z,-0.20
2019-01-31T07:10:06.276Z,-0.20
2019-01-31T07:20:10.488Z,-0.20
2019-01-31T07:30:13.409Z,0.00
2019-01-31T07:40:18.632Z,0.20
2019-01-31T07:50:21.326Z,0.50
2019-01-31T08:00:23.816Z,0.60
2019-01-31T08:10:38.062Z,1.10
2019-01-31T08:20:41.649Z,1.40
2019-01-31T08:30:44.220Z,2.10
2019-01-31T08:40:47.884Z,2.00
2019-01-31T08:50:50.717Z,2.20
2019-01-31T09:00:53.250Z,2.90
2019-01-31T09:10:55.791Z,3.70
2019-01-31T09:21:45.517Z,3.90
2019-01-31T09:32:28.844Z,4.00
2019-01-31T09:42:56.943Z,4.80
2019-01-31T09:53:44.150Z,6.10
2019-01-31T10:04:15.195Z,9.70
2019-01-31T10:14:33.318Z,11.40
2019-01-31T10:25:14.021Z,10.40
2019-01-31T10:35:59.380Z,12.20
2019-01-31T10:46:32.404Z,13.80
2019-01-31T10:57:22.208Z,13.30
2019-01-31T11:07:54.420Z,9.10
2019-01-31T11:18:08.644Z,6.50
2019-01-31T11:28:28.760Z,6.80
2019-01-31T11:39:16.245Z,6.30
2019-01-31T11:49:31.527Z,5.80
2019-01-31T11:59:34.220Z,5.50
2019-01-31T12:09:36.800Z,5.40
2019-01-31T12:19:39.502Z,5.30
2019-01-31T12:29:42.200Z,4.80
2019-01-31T12:39:44.946Z,4.40
2019-01-31T12:49:48.443Z,4.60
2019-01-31T12:59:51.141Z,5.00
2019-01-31T13:09:53.701Z,5.20
2019-01-31T13:19:58.016Z,4.60
2019-01-31T13:30:00.776Z,4.20
2019-01-31T13:40:05.108Z,4.20
2019-01-31T13:50:10.964Z,3.80
2019-01-31T14:00:14.656Z,3.70
2019-01-31T14:10:19.564Z,3.80
2019-01-31T14:20:24.236Z,3.70
2019-01-31T14:30:34.943Z,3.50
2019-01-31T14:40:37.524Z,3.50
2019-01-31T14:50:40.286Z,3.30
2019-01-31T15:00:43.046Z,3.20
2019-01-31T15:10:46.010Z,2.90
2019-01-31T15:20:48.652Z,2.60
2019-01-31T15:30:51.432Z,2.40
2019-01-31T15:40:54.012Z,2.10
2019-01-31T15:50:56.938Z,1.70
2019-01-31T16:00:59.668Z,1.40
2019-01-31T16:11:02.543Z,1.20
2019-01-31T16:21:05.425Z,1.00
2019-01-31T16:31:08.245Z,0.60
2019-01-31T16:41:10.889Z,0.40
2019-01-31T16:51:14.409Z,0.20
2019-01-31T17:01:17.096Z,-0.10
2019-01-31T17:11:19.621Z,-0.20
2019-01-31T17:21:22.164Z,-0.40
2019-01-31T17:31:24.800Z,-0.70
2019-01-31T17:41:27.380Z,-0.80
2019-01-31T17:51:30.937Z,-1.00
2019-01-31T18:01:33.849Z,-1.00
2019-01-31T18:11:36.521Z,-0.90
2019-01-31T18:21:39.097Z,-1.10
2019-01-31T18:31:41.784Z,-1.30
2019-01-31T18:41:45.475Z,-1.60
2019-01-31T18:51:49.261Z,-1.70
2019-01-31T19:01:51.939Z,-1.70
2019-01-31T19:11:54.573Z,-1.70
2019-01-31T19:21:58.257Z,-1.90
2019-01-31T19:32:01.015Z,-2.10
2019-01-31T19:42:03.869Z,-2.10
2019-01-31T19:52:08.123Z,-2.40
2019-01-31T20:02:10.865Z,-2.70
2019-01-31T20:12:13.552Z,-2.80
2019-01-31T20:22:16.173Z,-2.60
2019-01-31T20:32:18.892Z,-2.60
2019-01-31T20:42:21.573Z,-2.80
2019-01-31T20:52:25.105Z,-3.00
2019-01-31T21:02:27.784Z,-3.10
2019-01-31T21:12:30.337Z,-3.10
2019-01-31T21:22:32.948Z,-3.20
2019-01-31T21:32:35.845Z,-3.40
2019-01-31T21:42:39.521Z,-3.50
2019-01-31T21:52:42.948Z,-3.60
2019-01-31T22:02:45.532Z,-3.50
2019-01-31T22:12:48.184Z,-3.40
2019-01-31T22:22:51.010Z,-3.30
2019-01-31T22:32:53.717Z,-3.00
2019-01-31T22:42:56.288Z,-2.80
2019-01-31T22:52:59.737Z,-2.70
2019-01-31T23:03:02.792Z,-2.40
2019-01-31T23:13:05.341Z,-2.20
2019-01-31T23:23:07.977Z,-2.10
2019-01-31T23:33:10.642Z,-1.90
2019-01-31T23:43:13.269Z,-1.40
2019-01-31T23:53:16.709Z,-0.40
